sensor_id;sensor_type;location;lat;lon;timestamp;temperature;humidity
21778;DHT22;11050;52.222;20.916;2023-02-25T00:01:25;4.10;99.90
21778;DHT22;11050;52.222;20.916;2023-02-25T00:03:54;4.10;99.90
21778;DHT22;11050;52.222;20.916;2023-02-25T00:06:21;4.10;99.90
21778;DHT22;11050;52.222;20.916;2023-02-25T00:08:48;4.10;99.90
21778;DHT22;11050;52.222;20.916;2023-02-25T00:11:16;4.10;99.90
21778;DHT22;11050;52.222;20.916;2023-02-25T00:13:43;4.00;99.90
21778;DHT22;11050;52.222;20.916;2023-02-25T00:16:11;4.10;99.90
21778;DHT22;11050;52.222;20.916;2023-02-25T00:18:37;4.00;99.90
21778;DHT22;11050;52.222;20.916;2023-02-25T00:21:08;4.10;99.90
21778;DHT22;11050;52.222;20.916;2023-02-25T00:23:40;4.00;99.90
21778;DHT22;11050;52.222;20.916;2023-02-25T00:26:06;4.10;99.90
21778;DHT22;11050;52.222;20.916;2023-02-25T00:28:34;4.10;99.90
21778;DHT22;11050;52.222;20.916;2023-02-25T00:31:11;4.10;99.90
21778;DHT22;11050;52.222;20.916;2023-02-25T00:33:39;4.10;99.90
21778;DHT22;11050;52.222;20.916;2023-02-25T00:36:07;4.10;99.90
21778;DHT22;11050;52.222;20.916;2023-02-25T00:38:37;4.10;99.90
21778;DHT22;11050;52.222;20.916;2023-02-25T00:41:10;4.10;99.90
21778;DHT22;11050;52.222;20.916;2023-02-25T00:43:37;4.10;99.90
21778;DHT22;11050;52.222;20.916;2023-02-25T00:46:08;4.10;99.90
21778;DHT22;11050;52.222;20.916;2023-02-25T00:48:36;4.10;99.90
21778;DHT22;11050;52.222;20.916;2023-02-25T00:51:11;4.10;99.90
21778;DHT22;11050;52.222;20.916;2023-02-25T00:53:39;4.20;99.90
21778;DHT22;11050;52.222;20.916;2023-02-25T00:56:07;4.20;99.90
21778;DHT22;11050;52.222;20.916;2023-02-25T00:58:36;4.20;99.90
21778;DHT22;11050;52.222;20.916;2023-02-25T01:01:14;4.20;99.90
21778;DHT22;11050;52.222;20.916;2023-02-25T01:03:49;4.20;99.90
21778;DHT22;11050;52.222;20.916;2023-02-25T01:06:16;4.20;99.90
21778;DHT22;11050;52.222;20.916;2023-02-25T01:08:42;4.20;99.90
21778;DHT22;11050;52.222;20.916;2023-02-25T01:11:23;4.20;99.90
21778;DHT22;11050;52.222;20.916;2023-02-25T01:14:09;4.20;99.90
21778;DHT22;11050;52.222;20.916;2023-02-25T01:16:37;4.10;99.90
21778;DHT22;11050;52.222;20.916;2023-02-25T01:19:10;4.10;99.90
21778;DHT22;11050;52.222;20.916;2023-02-25T01:21:40;4.10;99.90
21778;DHT22;11050;52.222;20.916;2023-02-25T01:24:19;4.10;99.90
21778;DHT22;11050;52.222;20.916;2023-02-25T01:26:51;4.10;99.90
21778;DHT22;11050;52.222;20.916;2023-02-25T01:29:22;4.10;99.90
21778;DHT22;11050;52.222;20.916;2023-02-25T01:31:51;4.10;99.90
21778;DHT22;11050;52.222;20.916;2023-02-25T01:34:19;4.00;99.90
21778;DHT22;11050;52.222;20.916;2023-02-25T01:36:46;4.00;99.90
21778;DHT22;11050;52.222;20.916;2023-02-25T01:39:14;4.00;99.90
21778;DHT22;11050;52.222;20.916;2023-02-25T01:41:41;3.90;99.90
21778;DHT22;11050;52.222;20.916;2023-02-25T01:46:53;3.80;99.90
21778;DHT22;11050;52.222;20.916;2023-02-25T01:49:36;3.80;99.90
21778;DHT22;11050;52.222;20.916;2023-02-25T01:52:21;3.80;99.90
21778;DHT22;11050;52.222;20.916;2023-02-25T01:54:52;3.70;99.90
21778;DHT22;11050;52.222;20.916;2023-02-25T01:57:22;3.70;99.90
21778;DHT22;11050;52.222;20.916;2023-02-25T01:59:51;3.70;99.90
21778;DHT22;11050;52.222;20.916;2023-02-25T02:02:20;3.70;99.90
21778;DHT22;11050;52.222;20.916;2023-02-25T02:04:49;3.60;99.90
21778;DHT22;11050;52.222;20.916;2023-02-25T02:07:18;3.60;99.90
21778;DHT22;11050;52.222;20.916;2023-02-25T02:09:45;3.60;99.90
21778;DHT22;11050;52.222;20.916;2023-02-25T02:12:21;3.60;99.90
21778;DHT22;11050;52.222;20.916;2023-02-25T02:14:49;3.60;99.90
21778;DHT22;11050;52.222;20.916;2023-02-25T02:22:53;3.60;99.90
21778;DHT22;11050;52.222;20.916;2023-02-25T02:25:52;3.60;99.90
21778;DHT22;11050;52.222;20.916;2023-02-25T02:31:45;3.60;99.90
21778;DHT22;11050;52.222;20.916;2023-02-25T02:40:52;3.60;99.90
21778;DHT22;11050;52.222;20.916;2023-02-25T02:46:34;3.60;99.90
21778;DHT22;11050;52.222;20.916;2023-02-25T02:49:44;3.60;99.90
21778;DHT22;11050;52.222;20.916;2023-02-25T02:52:19;3.60;99.90
21778;DHT22;11050;52.222;20.916;2023-02-25T02:55:14;3.60;99.90
21778;DHT22;11050;52.222;20.916;2023-02-25T02:57:48;3.60;99.90
21778;DHT22;11050;52.222;20.916;2023-02-25T03:00:21;3.60;99.90
21778;DHT22;11050;52.222;20.916;2023-02-25T03:03:21;3.60;99.90
21778;DHT22;11050;52.222;20.916;2023-02-25T03:06:02;3.60;99.90
21778;DHT22;11050;52.222;20.916;2023-02-25T03:08:37;3.60;99.90
21778;DHT22;11050;52.222;20.916;2023-02-25T03:11:09;3.60;99.90
21778;DHT22;11050;52.222;20.916;2023-02-25T03:13:36;3.60;99.90
21778;DHT22;11050;52.222;20.916;2023-02-25T03:16:06;3.60;99.90
21778;DHT22;11050;52.222;20.916;2023-02-25T03:18:38;3.60;99.90
21778;DHT22;11050;52.222;20.916;2023-02-25T03:21:14;3.60;99.90
21778;DHT22;11050;52.222;20.916;2023-02-25T03:23:45;3.60;99.90
21778;DHT22;11050;52.222;20.916;2023-02-25T03:26:27;3.60;99.90
21778;DHT22;11050;52.222;20.916;2023-02-25T03:28:56;3.50;99.90
21778;DHT22;11050;52.222;20.916;2023-02-25T03:31:42;3.60;99.90
21778;DHT22;11050;52.222;20.916;2023-02-25T03:34:24;3.50;99.90
21778;DHT22;11050;52.222;20.916;2023-02-25T03:36:59;3.50;99.90
21778;DHT22;11050;52.222;20.916;2023-02-25T03:39:30;3.50;99.90
21778;DHT22;11050;52.222;20.916;2023-02-25T03:42:02;3.40;99.90
21778;DHT22;11050;52.222;20.916;2023-02-25T03:44:45;3.40;99.90
21778;DHT22;11050;52.222;20.916;2023-02-25T03:47:15;3.40;99.90
21778;DHT22;11050;52.222;20.916;2023-02-25T03:52:27;3.20;99.90
21778;DHT22;11050;52.222;20.916;2023-02-25T03:54:55;3.20;99.90
21778;DHT22;11050;52.222;20.916;2023-02-25T03:57:24;3.20;99.90
21778;DHT22;11050;52.222;20.916;2023-02-25T03:59:52;3.10;99.90
21778;DHT22;11050;52.222;20.916;2023-02-25T04:02:26;3.00;99.90
21778;DHT22;11050;52.222;20.916;2023-02-25T04:04:55;2.90;99.90
21778;DHT22;11050;52.222;20.916;2023-02-25T04:07:21;2.90;99.90
21778;DHT22;11050;52.222;20.916;2023-02-25T04:09:47;2.80;99.90
21778;DHT22;11050;52.222;20.916;2023-02-25T04:12:13;2.70;99.90
21778;DHT22;11050;52.222;20.916;2023-02-25T04:14:40;2.70;99.90
21778;DHT22;11050;52.222;20.916;2023-02-25T04:17:05;2.60;99.90
21778;DHT22;11050;52.222;20.916;2023-02-25T04:19:31;2.60;99.90
21778;DHT22;11050;52.222;20.916;2023-02-25T04:21:57;2.50;99.90
21778;DHT22;11050;52.222;20.916;2023-02-25T04:24:25;2.50;99.90
21778;DHT22;11050;52.222;20.916;2023-02-25T04:26:51;2.40;99.90
21778;DHT22;11050;52.222;20.916;2023-02-25T04:29:23;2.40;99.90
21778;DHT22;11050;52.222;20.916;2023-02-25T04:31:50;2.40;99.90
21778;DHT22;11050;52.222;20.916;2023-02-25T04:34:17;2.30;99.90
21778;DHT22;11050;52.222;20.916;2023-02-25T04:36:44;2.30;99.90
21778;DHT22;11050;52.222;20.916;2023-02-25T04:39:11;2.30;99.90
21778;DHT22;11050;52.222;20.916;2023-02-25T04:41:38;2.30;99.90
21778;DHT22;11050;52.222;20.916;2023-02-25T04:44:06;2.30;99.90
21778;DHT22;11050;52.222;20.916;2023-02-25T04:46:35;2.20;99.90
21778;DHT22;11050;52.222;20.916;2023-02-25T04:49:04;2.20;99.90
21778;DHT22;11050;52.222;20.916;2023-02-25T04:51:30;2.20;99.90
21778;DHT22;11050;52.222;20.916;2023-02-25T04:53:57;2.20;99.90
21778;DHT22;11050;52.222;20.916;2023-02-25T04:56:23;2.30;99.90
21778;DHT22;11050;52.222;20.916;2023-02-25T04:58:49;2.30;99.90
21778;DHT22;11050;52.222;20.916;2023-02-25T05:01:15;2.20;99.90
21778;DHT22;11050;52.222;20.916;2023-02-25T05:03:41;2.20;99.90
21778;DHT22;11050;52.222;20.916;2023-02-25T05:06:07;2.20;99.90
21778;DHT22;11050;52.222;20.916;2023-02-25T05:08:35;2.20;99.90
21778;DHT22;11050;52.222;20.916;2023-02-25T05:11:01;2.20;99.90
21778;DHT22;11050;52.222;20.916;2023-02-25T05:13:28;2.20;99.90
21778;DHT22;11050;52.222;20.916;2023-02-25T05:16:09;2.20;99.90
21778;DHT22;11050;52.222;20.916;2023-02-25T05:18:38;2.20;99.90
21778;DHT22;11050;52.222;20.916;2023-02-25T05:21:09;2.20;99.90
21778;DHT22;11050;52.222;20.916;2023-02-25T05:23:40;2.20;99.90
21778;DHT22;11050;52.222;20.916;2023-02-25T05:26:07;2.20;99.90
21778;DHT22;11050;52.222;20.916;2023-02-25T05:28:34;2.20;99.90
21778;DHT22;11050;52.222;20.916;2023-02-25T05:31:08;2.30;99.90
21778;DHT22;11050;52.222;20.916;2023-02-25T05:33:36;2.20;99.90
21778;DHT22;11050;52.222;20.916;2023-02-25T05:36:11;2.20;99.90
21778;DHT22;11050;52.222;20.916;2023-02-25T05:38:39;2.20;99.90
21778;DHT22;11050;52.222;20.916;2023-02-25T05:41:05;2.20;99.90
21778;DHT22;11050;52.222;20.916;2023-02-25T05:43:32;2.20;99.90
21778;DHT22;11050;52.222;20.916;2023-02-25T05:45:59;2.20;99.90
21778;DHT22;11050;52.222;20.916;2023-02-25T05:48:28;2.20;99.90
21778;DHT22;11050;52.222;20.916;2023-02-25T05:51:03;2.20;99.90
21778;DHT22;11050;52.222;20.916;2023-02-25T05:53:33;2.20;99.90
21778;DHT22;11050;52.222;20.916;2023-02-25T05:56:03;2.20;99.90
21778;DHT22;11050;52.222;20.916;2023-02-25T05:58:32;2.10;99.90
21778;DHT22;11050;52.222;20.916;2023-02-25T06:00:58;2.20;99.90
21778;DHT22;11050;52.222;20.916;2023-02-25T06:03:24;2.20;99.90
21778;DHT22;11050;52.222;20.916;2023-02-25T06:05:50;2.20;99.90
21778;DHT22;11050;52.222;20.916;2023-02-25T06:08:17;2.20;99.90
21778;DHT22;11050;52.222;20.916;2023-02-25T06:10:43;2.20;99.90
21778;DHT22;11050;52.222;20.916;2023-02-25T06:13:10;2.20;99.90
21778;DHT22;11050;52.222;20.916;2023-02-25T06:15:40;2.20;99.90
21778;DHT22;11050;52.222;20.916;2023-02-25T06:18:08;2.20;99.90
21778;DHT22;11050;52.222;20.916;2023-02-25T06:20:34;2.20;99.90
21778;DHT22;11050;52.222;20.916;2023-02-25T06:23:00;2.20;99.90
21778;DHT22;11050;52.222;20.916;2023-02-25T06:25:27;2.30;99.90
21778;DHT22;11050;52.222;20.916;2023-02-25T06:27:55;2.30;99.90
21778;DHT22;11050;52.222;20.916;2023-02-25T06:30:21;2.30;99.90
21778;DHT22;11050;52.222;20.916;2023-02-25T06:32:47;2.40;99.90
21778;DHT22;11050;52.222;20.916;2023-02-25T06:35:13;2.30;99.90
21778;DHT22;11050;52.222;20.916;2023-02-25T06:37:39;2.40;99.90
21778;DHT22;11050;52.222;20.916;2023-02-25T06:40:05;2.40;99.90
21778;DHT22;11050;52.222;20.916;2023-02-25T06:42:37;2.40;99.90
21778;DHT22;11050;52.222;20.916;2023-02-25T06:45:03;2.50;99.90
21778;DHT22;11050;52.222;20.916;2023-02-25T06:47:29;2.40;99.90
21778;DHT22;11050;52.222;20.916;2023-02-25T06:49:55;2.50;99.90
21778;DHT22;11050;52.222;20.916;2023-02-25T06:52:22;2.50;99.90
21778;DHT22;11050;52.222;20.916;2023-02-25T06:54:49;2.50;99.90
21778;DHT22;11050;52.222;20.916;2023-02-25T06:57:15;2.50;99.90
21778;DHT22;11050;52.222;20.916;2023-02-25T06:59:41;2.50;99.90
21778;DHT22;11050;52.222;20.916;2023-02-25T07:02:11;2.50;99.90
21778;DHT22;11050;52.222;20.916;2023-02-25T07:04:38;2.60;99.90
21778;DHT22;11050;52.222;20.916;2023-02-25T07:07:04;2.50;99.90
21778;DHT22;11050;52.222;20.916;2023-02-25T07:09:30;2.50;99.90
21778;DHT22;11050;52.222;20.916;2023-02-25T07:11:56;2.60;99.90
21778;DHT22;11050;52.222;20.916;2023-02-25T07:14:22;2.60;99.90
21778;DHT22;11050;52.222;20.916;2023-02-25T07:16:48;2.60;99.90
21778;DHT22;11050;52.222;20.916;2023-02-25T07:19:14;2.60;99.90
21778;DHT22;11050;52.222;20.916;2023-02-25T07:21:41;2.70;99.90
21778;DHT22;11050;52.222;20.916;2023-02-25T07:24:12;2.70;99.90
21778;DHT22;11050;52.222;20.916;2023-02-25T07:26:38;2.70;99.90
21778;DHT22;11050;52.222;20.916;2023-02-25T07:29:05;2.70;99.90
21778;DHT22;11050;52.222;20.916;2023-02-25T07:31:31;2.80;99.90
21778;DHT22;11050;52.222;20.916;2023-02-25T07:33:58;2.80;99.90
21778;DHT22;11050;52.222;20.916;2023-02-25T07:36:32;2.80;99.90
21778;DHT22;11050;52.222;20.916;2023-02-25T07:39:03;2.90;99.90
21778;DHT22;11050;52.222;20.916;2023-02-25T07:41:30;2.80;99.90
21778;DHT22;11050;52.222;20.916;2023-02-25T07:43:57;2.90;99.90
21778;DHT22;11050;52.222;20.916;2023-02-25T07:46:23;2.90;99.90
21778;DHT22;11050;52.222;20.916;2023-02-25T07:48:50;2.90;99.90
21778;DHT22;11050;52.222;20.916;2023-02-25T07:51:18;3.00;99.90
21778;DHT22;11050;52.222;20.916;2023-02-25T07:53:47;3.00;99.90
21778;DHT22;11050;52.222;20.916;2023-02-25T07:56:16;3.00;99.90
21778;DHT22;11050;52.222;20.916;2023-02-25T07:58:42;3.10;99.90
21778;DHT22;11050;52.222;20.916;2023-02-25T08:01:10;3.10;99.90
21778;DHT22;11050;52.222;20.916;2023-02-25T08:03:37;3.10;99.90
21778;DHT22;11050;52.222;20.916;2023-02-25T08:06:03;3.20;99.90
21778;DHT22;11050;52.222;20.916;2023-02-25T08:08:33;3.20;99.90
21778;DHT22;11050;52.222;20.916;2023-02-25T08:11:04;3.20;99.90
21778;DHT22;11050;52.222;20.916;2023-02-25T08:13:31;3.30;99.90
21778;DHT22;11050;52.222;20.916;2023-02-25T08:15:57;3.30;99.90
21778;DHT22;11050;52.222;20.916;2023-02-25T08:18:22;3.30;99.90
21778;DHT22;11050;52.222;20.916;2023-02-25T08:20:48;3.40;99.90
21778;DHT22;11050;52.222;20.916;2023-02-25T08:23:14;3.50;99.90
21778;DHT22;11050;52.222;20.916;2023-02-25T08:25:40;3.50;99.90
21778;DHT22;11050;52.222;20.916;2023-02-25T08:28:05;3.50;99.90
21778;DHT22;11050;52.222;20.916;2023-02-25T08:30:31;3.50;99.90
21778;DHT22;11050;52.222;20.916;2023-02-25T08:32:57;3.50;99.90
21778;DHT22;11050;52.222;20.916;2023-02-25T08:35:23;3.50;99.90
21778;DHT22;11050;52.222;20.916;2023-02-25T08:37:51;3.50;99.90
21778;DHT22;11050;52.222;20.916;2023-02-25T08:40:17;3.60;99.90
21778;DHT22;11050;52.222;20.916;2023-02-25T08:42:43;3.70;99.90
21778;DHT22;11050;52.222;20.916;2023-02-25T08:45:09;3.70;99.90
21778;DHT22;11050;52.222;20.916;2023-02-25T08:47:35;3.80;99.90
21778;DHT22;11050;52.222;20.916;2023-02-25T08:50:01;3.90;99.90
21778;DHT22;11050;52.222;20.916;2023-02-25T08:52:29;3.90;99.90
21778;DHT22;11050;52.222;20.916;2023-02-25T08:55:01;4.00;99.90
21778;DHT22;11050;52.222;20.916;2023-02-25T08:57:28;4.10;99.90
21778;DHT22;11050;52.222;20.916;2023-02-25T08:59:54;4.10;99.90
21778;DHT22;11050;52.222;20.916;2023-02-25T09:02:20;4.10;99.90
21778;DHT22;11050;52.222;20.916;2023-02-25T09:04:46;4.10;99.90
21778;DHT22;11050;52.222;20.916;2023-02-25T09:07:15;4.20;99.90
21778;DHT22;11050;52.222;20.916;2023-02-25T09:09:41;4.20;99.90
21778;DHT22;11050;52.222;20.916;2023-02-25T09:12:08;4.30;99.90
21778;DHT22;11050;52.222;20.916;2023-02-25T09:14:34;4.30;99.90
21778;DHT22;11050;52.222;20.916;2023-02-25T09:17:03;4.40;99.90
21778;DHT22;11050;52.222;20.916;2023-02-25T09:19:30;4.40;99.90
21778;DHT22;11050;52.222;20.916;2023-02-25T09:21:56;4.40;99.90
21778;DHT22;11050;52.222;20.916;2023-02-25T09:24:22;4.50;99.90
21778;DHT22;11050;52.222;20.916;2023-02-25T09:26:49;4.60;99.90
21778;DHT22;11050;52.222;20.916;2023-02-25T09:29:14;4.60;99.90
21778;DHT22;11050;52.222;20.916;2023-02-25T09:31:41;4.60;99.90
21778;DHT22;11050;52.222;20.916;2023-02-25T09:34:08;4.70;99.90
21778;DHT22;11050;52.222;20.916;2023-02-25T09:36:38;4.70;99.90
21778;DHT22;11050;52.222;20.916;2023-02-25T09:39:04;4.70;99.90
21778;DHT22;11050;52.222;20.916;2023-02-25T09:41:49;4.70;99.90
21778;DHT22;11050;52.222;20.916;2023-02-25T09:44:18;4.80;99.90
21778;DHT22;11050;52.222;20.916;2023-02-25T09:49:37;4.90;99.90
21778;DHT22;11050;52.222;20.916;2023-02-25T09:52:22;4.90;99.90
21778;DHT22;11050;52.222;20.916;2023-02-25T09:55:07;5.00;99.90
21778;DHT22;11050;52.222;20.916;2023-02-25T09:57:56;5.00;99.90
21778;DHT22;11050;52.222;20.916;2023-02-25T10:00:28;5.10;99.90
21778;DHT22;11050;52.222;20.916;2023-02-25T10:03:10;5.20;99.90
21778;DHT22;11050;52.222;20.916;2023-02-25T10:05:41;5.20;99.90
21778;DHT22;11050;52.222;20.916;2023-02-25T10:08:20;5.30;99.90
21778;DHT22;11050;52.222;20.916;2023-02-25T10:11:11;5.40;99.90
21778;DHT22;11050;52.222;20.916;2023-02-25T10:16:43;5.40;99.90
21778;DHT22;11050;52.222;20.916;2023-02-25T10:19:31;5.40;99.90
21778;DHT22;11050;52.222;20.916;2023-02-25T10:22:48;5.30;99.90
21778;DHT22;11050;52.222;20.916;2023-02-25T10:25:25;5.30;99.90
21778;DHT22;11050;52.222;20.916;2023-02-25T10:28:00;5.10;99.90
21778;DHT22;11050;52.222;20.916;2023-02-25T10:30:45;4.50;99.90
21778;DHT22;11050;52.222;20.916;2023-02-25T10:33:35;4.10;99.90
21778;DHT22;11050;52.222;20.916;2023-02-25T10:36:07;3.60;99.90
21778;DHT22;11050;52.222;20.916;2023-02-25T10:38:42;3.30;99.90
21778;DHT22;11050;52.222;20.916;2023-02-25T10:41:11;3.00;99.90
21778;DHT22;11050;52.222;20.916;2023-02-25T10:43:37;2.80;99.90
21778;DHT22;11050;52.222;20.916;2023-02-25T10:46:09;2.80;99.90
21778;DHT22;11050;52.222;20.916;2023-02-25T10:48:39;2.80;99.90
21778;DHT22;11050;52.222;20.916;2023-02-25T10:51:12;2.80;99.90
21778;DHT22;11050;52.222;20.916;2023-02-25T10:54:11;2.90;99.90
21778;DHT22;11050;52.222;20.916;2023-02-25T10:56:43;3.00;99.90
21778;DHT22;11050;52.222;20.916;2023-02-25T11:02:00;3.20;99.90
21778;DHT22;11050;52.222;20.916;2023-02-25T11:04:36;3.30;99.90
21778;DHT22;11050;52.222;20.916;2023-02-25T11:10:14;3.50;99.90
21778;DHT22;11050;52.222;20.916;2023-02-25T11:12:47;3.60;99.90
21778;DHT22;11050;52.222;20.916;2023-02-25T11:18:05;3.80;99.90
21778;DHT22;11050;52.222;20.916;2023-02-25T11:20:57;3.90;99.90
21778;DHT22;11050;52.222;20.916;2023-02-25T11:23:31;3.80;99.90
21778;DHT22;11050;52.222;20.916;2023-02-25T11:26:00;3.70;99.90
21778;DHT22;11050;52.222;20.916;2023-02-25T11:28:48;3.70;99.90
21778;DHT22;11050;52.222;20.916;2023-02-25T11:31:19;3.70;99.90
21778;DHT22;11050;52.222;20.916;2023-02-25T11:33:58;3.80;99.90
21778;DHT22;11050;52.222;20.916;2023-02-25T11:36:31;3.80;99.90
21778;DHT22;11050;52.222;20.916;2023-02-25T11:39:26;3.90;99.90
21778;DHT22;11050;52.222;20.916;2023-02-25T11:41:57;4.10;99.90
21778;DHT22;11050;52.222;20.916;2023-02-25T11:44:29;4.20;99.90
21778;DHT22;11050;52.222;20.916;2023-02-25T11:47:23;4.40;99.90
21778;DHT22;11050;52.222;20.916;2023-02-25T12:04:50;4.80;99.90
21778;DHT22;11050;52.222;20.916;2023-02-25T12:13:37;4.40;99.90
21778;DHT22;11050;52.222;20.916;2023-02-25T12:19:53;4.20;99.90
21778;DHT22;11050;52.222;20.916;2023-02-25T12:40:31;4.20;99.90
21778;DHT22;11050;52.222;20.916;2023-02-25T13:09:19;2.30;99.90
21778;DHT22;11050;52.222;20.916;2023-02-25T13:14:56;2.40;99.90
21778;DHT22;11050;52.222;20.916;2023-02-25T13:21:04;3.30;99.90
21778;DHT22;11050;52.222;20.916;2023-02-25T13:24:19;4.00;99.90
21778;DHT22;11050;52.222;20.916;2023-02-25T13:30:22;4.70;99.90
21778;DHT22;11050;52.222;20.916;2023-02-25T13:33:31;4.80;99.90
21778;DHT22;11050;52.222;20.916;2023-02-25T13:48:04;4.40;99.90
21778;DHT22;11050;52.222;20.916;2023-02-25T13:59:42;4.50;99.90
21778;DHT22;11050;52.222;20.916;2023-02-25T14:14:26;4.60;99.90
21778;DHT22;11050;52.222;20.916;2023-02-25T14:23:53;5.00;99.90
21778;DHT22;11050;52.222;20.916;2023-02-25T14:36:19;4.70;99.90
21778;DHT22;11050;52.222;20.916;2023-02-25T14:47:55;4.30;99.90
21778;DHT22;11050;52.222;20.916;2023-02-25T14:50:50;4.20;99.90
21778;DHT22;11050;52.222;20.916;2023-02-25T14:59:51;4.00;99.90
21778;DHT22;11050;52.222;20.916;2023-02-25T15:12:02;3.60;99.90
21778;DHT22;11050;52.222;20.916;2023-02-25T15:24:40;3.50;99.90
21778;DHT22;11050;52.222;20.916;2023-02-25T15:30:03;3.60;99.90
21778;DHT22;11050;52.222;20.916;2023-02-25T15:40:40;3.50;99.90
21778;DHT22;11050;52.222;20.916;2023-02-25T15:45:36;3.50;99.90
21778;DHT22;11050;52.222;20.916;2023-02-25T15:55:46;3.50;99.90
21778;DHT22;11050;52.222;20.916;2023-02-25T15:58:52;3.50;99.90
21778;DHT22;11050;52.222;20.916;2023-02-25T16:01:40;3.40;99.90
21778;DHT22;11050;52.222;20.916;2023-02-25T16:04:43;3.40;99.90
21778;DHT22;11050;52.222;20.916;2023-02-25T16:07:16;3.40;99.90
21778;DHT22;11050;52.222;20.916;2023-02-25T16:10:04;3.40;99.90
21778;DHT22;11050;52.222;20.916;2023-02-25T16:12:33;3.30;99.90
21778;DHT22;11050;52.222;20.916;2023-02-25T16:15:03;3.30;99.90
21778;DHT22;11050;52.222;20.916;2023-02-25T16:17:32;3.20;99.90
21778;DHT22;11050;52.222;20.916;2023-02-25T16:22:57;3.20;99.90
21778;DHT22;11050;52.222;20.916;2023-02-25T16:25:55;3.20;99.90
21778;DHT22;11050;52.222;20.916;2023-02-25T16:28:48;3.20;99.90
21778;DHT22;11050;52.222;20.916;2023-02-25T16:34:19;3.10;99.90
21778;DHT22;11050;52.222;20.916;2023-02-25T16:40:43;3.10;99.90
21778;DHT22;11050;52.222;20.916;2023-02-25T16:43:16;3.10;99.90
21778;DHT22;11050;52.222;20.916;2023-02-25T16:45:58;3.10;99.90
21778;DHT22;11050;52.222;20.916;2023-02-25T16:48:32;3.10;99.90
21778;DHT22;11050;52.222;20.916;2023-02-25T16:51:10;3.00;99.90
21778;DHT22;11050;52.222;20.916;2023-02-25T16:53:43;3.10;99.90
21778;DHT22;11050;52.222;20.916;2023-02-25T16:56:29;3.00;99.90
21778;DHT22;11050;52.222;20.916;2023-02-25T16:59:04;3.10;99.90
21778;DHT22;11050;52.222;20.916;2023-02-25T17:01:45;3.10;99.90
21778;DHT22;11050;52.222;20.916;2023-02-25T17:04:20;3.00;99.90
21778;DHT22;11050;52.222;20.916;2023-02-25T17:09:53;3.00;99.90
21778;DHT22;11050;52.222;20.916;2023-02-25T17:15:00;3.00;99.90
21778;DHT22;11050;52.222;20.916;2023-02-25T17:17:36;2.90;99.90
21778;DHT22;11050;52.222;20.916;2023-02-25T17:20:07;2.90;99.90
21778;DHT22;11050;52.222;20.916;2023-02-25T17:22:40;2.90;99.90
21778;DHT22;11050;52.222;20.916;2023-02-25T17:25:12;2.90;99.90
21778;DHT22;11050;52.222;20.916;2023-02-25T17:27:41;2.90;99.90
21778;DHT22;11050;52.222;20.916;2023-02-25T17:30:31;2.80;99.90
21778;DHT22;11050;52.222;20.916;2023-02-25T17:32:57;2.80;99.90
21778;DHT22;11050;52.222;20.916;2023-02-25T17:35:24;2.80;99.90
21778;DHT22;11050;52.222;20.916;2023-02-25T17:37:55;2.80;99.90
21778;DHT22;11050;52.222;20.916;2023-02-25T17:40:26;2.80;99.90
21778;DHT22;11050;52.222;20.916;2023-02-25T17:45:57;2.80;99.90
21778;DHT22;11050;52.222;20.916;2023-02-25T17:48:31;2.80;99.90
21778;DHT22;11050;52.222;20.916;2023-02-25T17:51:06;2.80;99.90
21778;DHT22;11050;52.222;20.916;2023-02-25T17:53:48;2.80;99.90
21778;DHT22;11050;52.222;20.916;2023-02-25T17:56:23;2.90;99.90
21778;DHT22;11050;52.222;20.916;2023-02-25T17:59:38;2.80;99.90
21778;DHT22;11050;52.222;20.916;2023-02-25T18:06:52;2.80;99.90
21778;DHT22;11050;52.222;20.916;2023-02-25T18:12:01;2.70;99.90
21778;DHT22;11050;52.222;20.916;2023-02-25T18:14:37;2.70;99.90
21778;DHT22;11050;52.222;20.916;2023-02-25T18:17:23;2.70;99.90
21778;DHT22;11050;52.222;20.916;2023-02-25T18:19:50;2.70;99.90
21778;DHT22;11050;52.222;20.916;2023-02-25T18:22:28;2.70;99.90
21778;DHT22;11050;52.222;20.916;2023-02-25T18:25:36;2.70;99.90
21778;DHT22;11050;52.222;20.916;2023-02-25T18:28:06;2.70;99.90
21778;DHT22;11050;52.222;20.916;2023-02-25T18:30:38;2.70;99.90
21778;DHT22;11050;52.222;20.916;2023-02-25T18:33:04;2.70;99.90
21778;DHT22;11050;52.222;20.916;2023-02-25T18:35:31;2.70;99.90
21778;DHT22;11050;52.222;20.916;2023-02-25T18:37:58;2.70;99.90
21778;DHT22;11050;52.222;20.916;2023-02-25T18:40:29;2.70;99.90
21778;DHT22;11050;52.222;20.916;2023-02-25T18:43:02;2.70;99.90
21778;DHT22;11050;52.222;20.916;2023-02-25T18:45:30;2.70;99.90
21778;DHT22;11050;52.222;20.916;2023-02-25T18:47:57;2.70;99.90
21778;DHT22;11050;52.222;20.916;2023-02-25T18:50:31;2.70;99.90
21778;DHT22;11050;52.222;20.916;2023-02-25T18:52:58;2.70;99.90
21778;DHT22;11050;52.222;20.916;2023-02-25T18:55:29;2.80;99.90
21778;DHT22;11050;52.222;20.916;2023-02-25T18:57:57;2.80;99.90
21778;DHT22;11050;52.222;20.916;2023-02-25T19:00:25;2.80;99.90
21778;DHT22;11050;52.222;20.916;2023-02-25T19:03:02;2.80;99.90
21778;DHT22;11050;52.222;20.916;2023-02-25T19:05:29;2.80;99.90
21778;DHT22;11050;52.222;20.916;2023-02-25T19:07:55;2.80;99.90
21778;DHT22;11050;52.222;20.916;2023-02-25T19:10:30;2.90;99.90
21778;DHT22;11050;52.222;20.916;2023-02-25T19:13:28;2.90;99.90
21778;DHT22;11050;52.222;20.916;2023-02-25T19:15:59;2.90;99.90
21778;DHT22;11050;52.222;20.916;2023-02-25T19:18:26;2.90;99.90
21778;DHT22;11050;52.222;20.916;2023-02-25T19:20:51;2.90;99.90
21778;DHT22;11050;52.222;20.916;2023-02-25T19:23:18;2.90;99.90
21778;DHT22;11050;52.222;20.916;2023-02-25T19:25:45;3.00;99.90
21778;DHT22;11050;52.222;20.916;2023-02-25T19:28:13;2.90;99.90
21778;DHT22;11050;52.222;20.916;2023-02-25T19:30:41;2.90;99.90
21778;DHT22;11050;52.222;20.916;2023-02-25T19:33:08;2.90;99.90
21778;DHT22;11050;52.222;20.916;2023-02-25T19:35:38;2.90;99.90
21778;DHT22;11050;52.222;20.916;2023-02-25T19:38:06;2.80;99.90
21778;DHT22;11050;52.222;20.916;2023-02-25T19:40:34;2.80;99.90
21778;DHT22;11050;52.222;20.916;2023-02-25T19:43:01;2.80;99.90
21778;DHT22;11050;52.222;20.916;2023-02-25T19:45:29;2.80;99.90
21778;DHT22;11050;52.222;20.916;2023-02-25T19:47:55;2.70;99.90
21778;DHT22;11050;52.222;20.916;2023-02-25T19:50:22;2.70;99.90
21778;DHT22;11050;52.222;20.916;2023-02-25T19:52:50;2.70;99.90
21778;DHT22;11050;52.222;20.916;2023-02-25T19:55:17;2.70;99.90
21778;DHT22;11050;52.222;20.916;2023-02-25T19:57:44;2.70;99.90
21778;DHT22;11050;52.222;20.916;2023-02-25T20:00:13;2.70;99.90
21778;DHT22;11050;52.222;20.916;2023-02-25T20:02:44;2.60;99.90
21778;DHT22;11050;52.222;20.916;2023-02-25T20:05:11;2.60;99.90
21778;DHT22;11050;52.222;20.916;2023-02-25T20:07:37;2.60;99.90
21778;DHT22;11050;52.222;20.916;2023-02-25T20:10:04;2.60;99.90